Time;durP1;ratioP1;P1;durP2;ratioP2;P2;SDS_P1;SDS_P2;PMS_P1;PMS_P2;Temp;Humidity;BMP_temperature;BMP_pressure;BME280_temperature;BME280_humidity;BME280_pressure;Samples;Min_cycle;Max_cycle;Signal;HPM_P1;HPM_P2
2022/08/15 00:01:17;;;;;;;5.65;2.92;;;;;;;26.93;43.02;98797.50;4145785;28;20212;-29
2022/08/15 00:03:31;;;;;;;6.38;3.00;;;;;;;28.10;41.20;98784.09;4145822;28;20291;-28
2022/08/15 00:05:59;;;;;;;9.45;3.53;;;;;;;27.94;41.76;98793.69;4147473;28;20233;-29
2022/08/15 00:08:30;;;;;;;5.18;3.08;;;;;;;26.33;44.16;98817.69;4151560;28;20228;-28
2022/08/15 00:11:13;;;;;;;6.47;3.15;;;;;;;27.78;41.92;98788.44;4147696;28;20264;-29
2022/08/15 00:13:25;;;;;;;6.65;3.10;;;;;;;27.56;42.16;98805.41;4130534;28;20719;-30
2022/08/15 00:15:31;;;;;;;6.30;3.55;;;;;;;28.09;41.84;98803.53;4144912;28;20275;-29
2022/08/15 00:17:46;;;;;;;5.88;3.25;;;;;;;26.63;44.10;98799.47;4131002;28;20226;-30
2022/08/15 00:19:50;;;;;;;5.30;3.15;;;;;;;26.96;43.39;98792.25;4148064;28;20252;-30
2022/08/15 00:21:55;;;;;;;6.45;3.90;;;;;;;26.32;45.07;98791.56;4147152;28;20270;-29
2022/08/15 00:24:04;;;;;;;7.70;3.30;;;;;;;25.34;46.50;98802.28;4149814;28;20209;-29
2022/08/15 00:26:26;;;;;;;6.47;3.08;;;;;;;26.45;44.98;98784.59;4148285;28;20233;-30
2022/08/15 00:28:47;;;;;;;10.18;3.55;;;;;;;26.57;44.82;98790.53;4147368;28;20288;-29
2022/08/15 00:30:57;;;;;;;6.72;3.15;;;;;;;28.24;42.01;98791.56;4148182;28;20205;-29
2022/08/15 00:33:07;;;;;;;4.68;3.22;;;;;;;28.29;41.78;98805.13;4147599;28;20248;-29
2022/08/15 00:35:36;;;;;;;6.45;3.60;;;;;;;28.24;42.09;98816.16;4148669;28;20217;-29
2022/08/15 00:37:39;;;;;;;5.10;3.00;;;;;;;27.81;42.54;98817.91;4147052;28;20656;-28
2022/08/15 00:40:08;;;;;;;5.30;3.08;;;;;;;28.22;42.13;98810.97;4146514;28;20218;-29
2022/08/15 00:42:24;;;;;;;5.97;3.75;;;;;;;28.05;42.08;98824.38;4146330;28;20220;-29
2022/08/15 00:44:34;;;;;;;5.50;3.08;;;;;;;28.18;42.08;98826.38;4149937;28;20252;-29
2022/08/15 00:47:07;;;;;;;6.85;3.30;;;;;;;27.20;43.95;98805.91;4145835;28;20221;-28
2022/08/15 00:49:10;;;;;;;4.50;3.00;;;;;;;27.78;43.00;98804.81;4147028;28;20236;-29
2022/08/15 00:51:18;;;;;;;7.03;3.45;;;;;;;26.28;45.77;98804.94;4147847;28;20667;-29
2022/08/15 00:53:31;;;;;;;5.80;3.53;;;;;;;26.28;45.63;98815.03;4143378;28;20756;-30
2022/08/15 00:55:38;;;;;;;6.30;3.42;;;;;;;26.56;45.21;98788.91;4144707;28;20213;-30
2022/08/15 00:57:43;;;;;;;5.18;3.30;;;;;;;26.62;45.15;98803.28;4150441;28;20286;-29
2022/08/15 01:00:15;;;;;;;4.65;3.78;;;;;;;27.37;43.56;98813.59;4145048;28;20211;-28
2022/08/15 01:02:36;;;;;;;7.13;3.38;;;;;;;27.31;44.08;98812.03;4151680;28;20216;-30
2022/08/15 01:04:39;;;;;;;6.88;3.28;;;;;;;27.01;44.02;98829.56;4148408;28;20217;-29
2022/08/15 01:06:51;;;;;;;7.45;3.28;;;;;;;27.67;43.34;98811.56;4147220;28;20239;-28
2022/08/15 01:08:58;;;;;;;7.93;3.40;;;;;;;27.65;43.19;98830.16;4147277;28;20221;-29
2022/08/15 01:11:06;;;;;;;4.20;3.38;;;;;;;27.72;43.08;98818.84;4143705;28;20217;-31
2022/08/15 01:13:15;;;;;;;6.00;3.38;;;;;;;27.65;43.43;98835.59;4147328;28;20204;-29
2022/08/15 01:15:37;;;;;;;6.25;3.63;;;;;;;26.22;46.25;98827.06;4146143;28;20222;-29
2022/08/15 01:17:44;;;;;;;6.72;3.63;;;;;;;27.32;43.95;98826.50;4147974;28;20859;-30
2022/08/15 01:20:07;;;;;;;9.68;3.45;;;;;;;27.65;43.49;98826.59;4149362;28;20235;-28
2022/08/15 01:22:57;;;;;;;7.90;3.55;;;;;;;27.67;43.68;98816.19;4145255;28;20208;-28
2022/08/15 01:25:09;;;;;;;6.63;3.67;;;;;;;27.40;43.89;98825.84;4114329;28;20221;-30
2022/08/15 01:27:44;;;;;;;6.63;3.38;;;;;;;27.26;44.33;98825.72;4146450;28;20253;-29
2022/08/15 01:29:53;;;;;;;7.43;3.15;;;;;;;27.80;43.52;98827.22;4143778;28;20259;-31
2022/08/15 01:32:05;;;;;;;6.03;3.45;;;;;;;27.56;43.70;98827.25;4144889;28;20209;-29
2022/08/15 01:34:07;;;;;;;7.43;4.10;;;;;;;27.39;44.16;98841.41;4145125;28;20714;-29
2022/08/15 01:36:15;;;;;;;4.55;3.17;;;;;;;26.86;45.16;98850.47;4147161;28;20263;-28
2022/08/15 01:38:39;;;;;;;5.85;3.53;;;;;;;27.73;44.08;98839.59;4146708;28;20237;-29
2022/08/15 01:41:09;;;;;;;5.68;3.22;;;;;;;25.75;48.22;98823.84;4147767;28;20771;-28
2022/08/15 01:43:21;;;;;;;7.18;3.17;;;;;;;24.86;50.17;98836.19;4145023;28;20943;-29
2022/08/15 01:45:34;;;;;;;7.45;3.20;;;;;;;26.12;47.61;98822.53;4146759;28;20208;-28
2022/08/15 01:47:48;;;;;;;6.03;3.03;;;;;;;26.30;47.26;98808.19;4144673;28;20311;-29
2022/08/15 01:50:15;;;;;;;4.78;2.92;;;;;;;26.47;47.68;98824.13;4145361;28;20670;-30
2022/08/15 01:52:36;;;;;;;6.60;3.00;;;;;;;26.45;48.18;98814.59;4147022;28;20300;-28
2022/08/15 01:55:01;;;;;;;4.90;2.72;;;;;;;27.06;47.88;98816.72;4145670;28;20217;-29
2022/08/15 01:57:08;;;;;;;5.95;3.20;;;;;;;26.23;49.57;98829.50;4147213;28;20287;-29
2022/08/15 01:59:21;;;;;;;4.28;3.08;;;;;;;26.60;49.10;98817.19;4148208;28;20843;-30
2022/08/15 02:01:38;;;;;;;6.38;3.38;;;;;;;26.76;48.03;98815.13;4145231;28;20250;-29
2022/08/15 02:03:45;;;;;;;4.95;3.15;;;;;;;26.78;48.58;98821.09;4150363;28;20216;-31
2022/08/15 02:05:53;;;;;;;4.65;2.95;;;;;;;26.18;49.84;98815.13;4144515;28;20201;-29
2022/08/15 02:07:58;;;;;;;9.70;3.25;;;;;;;26.39;49.95;98832.91;4149368;28;20644;-28
2022/08/15 02:10:19;;;;;;;4.95;3.22;;;;;;;27.00;48.86;98823.31;4148940;28;20630;-29
2022/08/15 02:12:33;;;;;;;6.50;3.45;;;;;;;24.32;54.13;98839.53;4141729;28;20372;-29
2022/08/15 02:14:56;;;;;;;4.47;3.53;;;;;;;23.68;57.00;98806.31;4148224;28;20720;-29
2022/08/15 02:16:59;;;;;;;5.28;3.28;;;;;;;25.34;52.95;98791.41;4147675;28;20862;-28
2022/08/15 02:19:10;;;;;;;9.07;3.22;;;;;;;25.48;53.38;98800.59;4144543;28;20233;-29
2022/08/15 02:21:13;;;;;;;5.05;3.53;;;;;;;25.41;53.27;98795.47;4145963;28;20740;-28
2022/08/15 02:23:15;;;;;;;6.65;3.50;;;;;;;25.25;53.86;98804.78;4144632;28;20212;-28
2022/08/15 02:25:24;;;;;;;3.47;3.13;;;;;;;24.36;55.77;98813.41;4147116;28;20834;-30
2022/08/15 02:27:31;;;;;;;5.28;3.40;;;;;;;24.27;57.54;98785.19;4143290;28;20287;-28
2022/08/15 02:29:33;;;;;;;6.93;3.58;;;;;;;24.41;57.62;98774.56;4147889;28;20209;-29
2022/08/15 02:32:04;;;;;;;9.98;4.10;;;;;;;24.39;56.52;98788.44;4147029;28;20293;-28
2022/08/15 02:34:07;;;;;;;5.45;4.07;;;;;;;24.23;56.95;98808.56;4147184;28;20573;-29
2022/08/15 02:36:18;;;;;;;9.88;3.83;;;;;;;22.52;62.30;98786.56;4144592;28;20211;-29
2022/08/15 02:38:34;;;;;;;5.30;3.20;;;;;;;24.36;57.62;98785.44;4142915;28;20221;-28
2022/08/15 02:40:49;;;;;;;6.60;4.20;;;;;;;24.84;56.81;98778.56;4146294;28;20256;-28
2022/08/15 02:42:53;;;;;;;6.28;4.28;;;;;;;24.46;57.54;98807.16;4144791;28;20296;-29
2022/08/15 02:45:01;;;;;;;7.35;4.07;;;;;;;23.37;60.54;98800.00;4144094;28;20209;-32
2022/08/15 02:47:03;;;;;;;6.72;4.15;;;;;;;24.13;58.69;98790.34;4145658;28;20408;-31
2022/08/15 02:49:12;;;;;;;6.80;4.25;;;;;;;24.78;56.29;98809.56;4144757;28;20739;-31
2022/08/15 02:51:22;;;;;;;6.43;3.50;;;;;;;24.83;56.40;98798.72;4126099;28;21483;-29
2022/08/15 02:53:24;;;;;;;4.55;3.50;;;;;;;24.93;55.46;98826.94;4149116;28;20698;-32
2022/08/15 02:55:27;;;;;;;6.13;4.07;;;;;;;24.73;57.03;98806.84;4144514;28;20574;-29
2022/08/15 02:57:36;;;;;;;5.43;3.50;;;;;;;25.83;53.92;98801.47;4145820;28;20677;-29
2022/08/15 03:00:07;;;;;;;4.63;3.40;;;;;;;26.06;53.56;98821.72;4146151;28;20212;-29
2022/08/15 03:02:19;;;;;;;9.40;3.60;;;;;;;25.36;55.02;98828.16;4144546;28;20211;-31
2022/08/15 03:04:34;;;;;;;6.13;3.88;;;;;;;23.02;60.87;98842.97;4144798;28;20205;-31
2022/08/15 03:06:46;;;;;;;7.38;3.97;;;;;;;22.15;63.31;98834.19;4143114;28;20724;-29
2022/08/15 03:08:48;;;;;;;4.20;3.38;;;;;;;23.56;60.46;98803.03;4142954;28;20232;-28
2022/08/15 03:10:50;;;;;;;4.25;3.42;;;;;;;24.18;58.30;98808.56;4145701;28;20216;-29
2022/08/15 03:13:01;;;;;;;5.05;3.30;;;;;;;23.22;60.29;98825.16;4144441;28;20264;-28
2022/08/15 03:15:06;;;;;;;5.50;3.80;;;;;;;23.51;60.14;98808.44;4144533;28;20201;-32
2022/08/15 03:17:11;;;;;;;4.65;3.47;;;;;;;24.18;58.32;98814.81;4145491;28;20283;-30
2022/08/15 03:19:25;;;;;;;5.80;3.83;;;;;;;25.09;56.22;98825.81;4143900;28;20221;-31
2022/08/15 03:21:27;;;;;;;6.25;4.38;;;;;;;23.73;59.26;98841.59;4142422;28;20268;-31
2022/08/15 03:23:31;;;;;;;4.70;3.78;;;;;;;23.74;58.85;98851.38;4145858;28;20238;-28
2022/08/15 03:25:47;;;;;;;9.05;4.32;;;;;;;22.58;62.37;98851.34;4125545;28;21350;-30
2022/08/15 03:27:56;;;;;;;6.72;4.40;;;;;;;24.42;58.05;98836.78;4125960;28;20233;-29
2022/08/15 03:29:58;;;;;;;5.35;4.03;;;;;;;25.58;54.84;98841.38;4145078;28;20253;-31
2022/08/15 03:32:12;;;;;;;7.35;3.72;;;;;;;24.50;57.57;98851.75;4146112;28;20216;-28
2022/08/15 03:34:34;;;;;;;4.85;3.83;;;;;;;24.80;56.63;98869.09;4146300;28;20536;-31
2022/08/15 03:36:37;;;;;;;5.75;4.43;;;;;;;25.39;55.10;98859.41;4129429;28;20206;-28
2022/08/15 03:38:53;;;;;;;7.20;4.13;;;;;;;25.15;55.32;98870.91;4141440;28;20753;-31
2022/08/15 03:40:59;;;;;;;5.88;4.53;;;;;;;25.11;55.91;98878.00;4141191;28;20213;-30
2022/08/15 03:43:09;;;;;;;6.55;4.22;;;;;;;25.29;55.31;98884.75;4140302;28;20217;-28
2022/08/15 03:45:18;;;;;;;5.25;4.30;;;;;;;25.34;55.36;98871.13;4146088;28;20626;-29
2022/08/15 03:47:21;;;;;;;7.03;4.50;;;;;;;24.77;56.85;98880.56;4146467;28;20279;-28
2022/08/15 03:49:23;;;;;;;5.13;4.22;;;;;;;24.83;56.48;98877.56;4168752;22;20686;-29
2022/08/15 03:51:45;;;;;;;9.35;4.43;;;;;;;25.49;54.61;98872.16;4144704;28;20260;-29
2022/08/15 03:53:53;;;;;;;7.47;4.72;;;;;;;25.65;54.43;98871.00;4138392;28;20220;-29
2022/08/15 03:56:01;;;;;;;5.93;4.57;;;;;;;25.32;55.26;98889.63;4143241;28;20251;-29
2022/08/15 03:58:04;;;;;;;5.43;4.20;;;;;;;25.30;55.36;98886.38;4139762;28;20225;-29
2022/08/15 04:00:10;;;;;;;5.13;4.15;;;;;;;25.63;54.73;98880.53;4146418;28;20633;-29
2022/08/15 04:02:13;;;;;;;6.15;4.15;;;;;;;24.71;56.88;98887.03;4155371;28;20236;-29
2022/08/15 04:04:33;;;;;;;6.43;4.85;;;;;;;25.11;56.06;98886.16;4144341;28;20237;-29
2022/08/15 04:06:37;;;;;;;6.25;4.25;;;;;;;23.62;59.42;98885.25;4131417;28;20234;-29
2022/08/15 04:08:39;;;;;;;6.38;4.32;;;;;;;24.39;57.40;98878.09;4138776;28;20829;-29
2022/08/15 04:11:04;;;;;;;5.32;4.40;;;;;;;24.53;56.87;98880.25;4145256;28;20283;-31
2022/08/15 04:13:08;;;;;;;5.63;4.45;;;;;;;24.52;56.82;98892.22;4129885;28;20238;-29
2022/08/15 04:15:14;;;;;;;6.80;4.47;;;;;;;24.38;57.53;98889.22;4129046;28;20695;-29
2022/08/15 04:17:18;;;;;;;6.18;4.68;;;;;;;23.92;58.82;98876.38;4124392;28;20232;-29
2022/08/15 04:19:21;;;;;;;6.25;4.63;;;;;;;24.46;57.40;98877.81;4128376;28;20253;-29
2022/08/15 04:21:23;;;;;;;6.05;4.70;;;;;;;23.89;58.37;98899.47;4129814;28;20681;-29
2022/08/15 04:23:25;;;;;;;6.25;4.65;;;;;;;24.82;56.52;98883.25;4128562;28;20292;-29
2022/08/15 04:25:31;;;;;;;6.07;4.63;;;;;;;24.49;57.51;98880.00;4130030;28;20270;-29
2022/08/15 04:27:43;;;;;;;5.78;4.45;;;;;;;24.13;58.47;98872.63;4129991;28;20273;-29
2022/08/15 04:29:53;;;;;;;7.00;5.03;;;;;;;24.19;58.33;98884.31;4133657;28;20272;-29
2022/08/15 04:32:00;;;;;;;6.35;4.82;;;;;;;24.92;56.32;98880.50;4130447;28;20317;-29
2022/08/15 04:34:03;;;;;;;7.07;4.88;;;;;;;24.85;56.38;98885.41;4129225;28;20616;-29
2022/08/15 04:36:25;;;;;;;6.85;4.65;;;;;;;23.54;59.99;98897.44;4128906;28;20226;-29
2022/08/15 04:38:32;;;;;;;5.38;4.50;;;;;;;23.65;59.61;98888.25;4128720;28;20240;-29
2022/08/15 04:40:35;;;;;;;7.93;4.80;;;;;;;23.58;59.99;98879.56;4127128;28;20233;-29
2022/08/15 04:42:59;;;;;;;6.75;4.60;;;;;;;24.02;58.54;98887.25;4134225;28;20287;-29
2022/08/15 04:45:01;;;;;;;5.30;4.20;;;;;;;24.49;57.44;98890.84;4149747;28;20225;-29
2022/08/15 04:47:03;;;;;;;8.57;4.57;;;;;;;24.76;56.56;98895.19;4154180;28;20644;-29
2022/08/15 04:49:05;;;;;;;5.70;4.40;;;;;;;24.67;56.67;98898.47;4148120;28;20237;-29
2022/08/15 04:51:11;;;;;;;4.95;4.40;;;;;;;25.46;54.77;98887.16;4152392;28;20228;-29
2022/08/15 04:53:20;;;;;;;5.28;4.30;;;;;;;25.37;55.00;98889.66;4152796;28;20279;-29
2022/08/15 04:55:31;;;;;;;8.57;4.38;;;;;;;25.02;55.91;98880.50;4151481;28;20232;-29
2022/08/15 04:57:46;;;;;;;6.55;3.97;;;;;;;24.95;55.71;98882.69;4151841;28;20239;-29
2022/08/15 04:59:56;;;;;;;6.60;4.22;;;;;;;24.83;56.48;98874.81;4151633;28;20243;-29
2022/08/15 05:02:12;;;;;;;5.70;4.40;;;;;;;25.64;54.48;98857.69;4150362;28;20228;-29
2022/08/15 05:04:34;;;;;;;6.13;4.30;;;;;;;25.48;54.49;98876.00;4150814;28;20771;-30
2022/08/15 05:06:37;;;;;;;5.88;3.97;;;;;;;25.73;53.78;98864.16;4150236;28;20237;-29
2022/08/15 05:08:39;;;;;;;5.65;3.83;;;;;;;25.55;54.12;98876.50;4152101;28;20236;-29
2022/08/15 05:10:54;;;;;;;5.75;4.07;;;;;;;25.49;54.09;98853.97;4150482;28;20237;-29
2022/08/15 05:13:20;;;;;;;4.90;3.58;;;;;;;26.04;52.93;98845.72;4149610;28;20228;-29
2022/08/15 05:15:23;;;;;;;4.28;3.60;;;;;;;23.68;58.53;98862.50;4146184;28;20263;-30
2022/08/15 05:17:32;;;;;;;5.97;3.38;;;;;;;24.49;56.61;98855.53;4149226;28;20588;-29
2022/08/15 05:19:53;;;;;;;3.95;3.13;;;;;;;23.70;58.21;98882.84;4148309;28;20300;-30
2022/08/15 05:21:56;;;;;;;5.70;3.25;;;;;;;23.09;60.05;98875.25;4148866;28;20232;-30
2022/08/15 05:23:59;;;;;;;7.25;3.70;;;;;;;22.64;61.25;98866.56;4150451;28;20312;-29
2022/08/15 05:26:07;;;;;;;4.97;3.47;;;;;;;23.18;60.07;98857.41;4151314;28;20922;-29
2022/08/15 05:28:29;;;;;;;4.95;3.38;;;;;;;23.74;57.90;98877.72;4147130;28;20233;-29
2022/08/15 05:30:33;;;;;;;4.15;3.40;;;;;;;23.34;59.12;98871.84;4127223;28;20226;-29
2022/08/15 05:32:34;;;;;;;6.22;3.58;;;;;;;22.48;61.16;98882.97;4129775;28;20589;-30
2022/08/15 05:34:36;;;;;;;4.50;3.17;;;;;;;22.30;61.99;98881.47;4126783;28;20239;-30
2022/08/15 05:36:48;;;;;;;5.68;3.60;;;;;;;24.01;57.64;98884.81;4130221;28;20233;-29
2022/08/15 05:38:58;;;;;;;3.65;3.22;;;;;;;23.80;58.51;98884.78;4128266;28;20280;-30
2022/08/15 05:41:26;;;;;;;3.85;3.42;;;;;;;23.94;57.57;98890.53;4127806;28;20253;-29
2022/08/15 05:43:47;;;;;;;4.15;3.40;;;;;;;23.86;57.25;98929.06;4122753;28;20229;-29
2022/08/15 05:46:09;;;;;;;4.65;3.22;;;;;;;24.65;55.74;98924.28;4131113;28;20245;-29
2022/08/15 05:48:33;;;;;;;3.95;3.45;;;;;;;24.63;55.33;98926.44;4128859;28;20320;-30
2022/08/15 05:51:08;;;;;;;4.20;3.47;;;;;;;24.37;55.96;98929.16;4125140;28;20218;-30
2022/08/15 05:53:36;;;;;;;4.40;3.22;;;;;;;24.89;54.75;98918.31;4109333;28;20225;-29
2022/08/15 05:55:55;;;;;;;3.97;3.03;;;;;;;24.85;54.67;98934.34;4126639;28;20238;-30
2022/08/15 05:58:19;;;;;;;5.28;3.55;;;;;;;24.08;56.55;98931.56;4126897;28;20238;-30
2022/08/15 06:00:46;;;;;;;6.00;3.40;;;;;;;24.02;56.74;98914.41;4123952;28;20292;-30
2022/08/15 06:02:59;;;;;;;5.53;3.17;;;;;;;24.20;55.94;98915.84;4133069;28;20225;-30
2022/08/15 06:05:24;;;;;;;4.18;3.50;;;;;;;23.32;57.68;98928.25;4127918;28;20237;-29
2022/08/15 06:07:36;;;;;;;7.78;3.22;;;;;;;24.34;55.53;98912.59;4124905;28;20291;-29
2022/08/15 06:10:06;;;;;;;3.95;3.10;;;;;;;24.57;54.84;98919.41;4124195;28;20283;-30
2022/08/15 06:12:21;;;;;;;9.30;3.42;;;;;;;23.86;56.48;98926.34;4125389;28;20316;-30
2022/08/15 06:14:30;;;;;;;4.60;3.28;;;;;;;24.69;55.04;98915.28;4128539;28;20233;-30
2022/08/15 06:16:44;;;;;;;4.35;3.08;;;;;;;24.27;56.03;98908.22;4126015;28;20261;-29
2022/08/15 06:18:48;;;;;;;4.70;3.50;;;;;;;24.75;54.72;98916.13;4126748;28;20321;-30
2022/08/15 06:21:06;;;;;;;6.55;3.40;;;;;;;24.79;54.63;98919.94;4127539;28;20287;-29
2022/08/15 06:23:14;;;;;;;5.10;3.30;;;;;;;25.19;54.04;98904.63;4123113;28;20328;-29
2022/08/15 06:25:31;;;;;;;5.43;3.53;;;;;;;25.19;54.18;98920.97;4127746;28;20283;-30
2022/08/15 06:28:03;;;;;;;4.18;3.70;;;;;;;24.85;54.86;98923.47;4131594;28;20364;-30
2022/08/15 06:30:34;;;;;;;6.22;3.83;;;;;;;24.31;56.43;98920.22;4125124;28;20612;-30
2022/08/15 06:32:38;;;;;;;4.68;3.83;;;;;;;24.25;56.67;98913.13;4132289;28;20283;-30
2022/08/15 06:35:02;;;;;;;4.15;3.53;;;;;;;24.84;55.45;98913.69;4134673;28;20249;-30
2022/08/15 06:37:27;;;;;;;5.47;3.60;;;;;;;24.18;56.59;98928.06;4144790;28;20320;-30
2022/08/15 06:39:49;;;;;;;5.93;4.00;;;;;;;24.86;55.17;98911.50;4142494;28;20834;-29
2022/08/15 06:42:04;;;;;;;5.07;3.78;;;;;;;24.89;55.14;98924.56;4116087;28;20237;-30
2022/08/15 06:44:12;;;;;;;5.30;3.80;;;;;;;24.19;57.40;98922.34;4143674;28;20285;-29
2022/08/15 06:46:13;;;;;;;6.80;4.80;;;;;;;25.20;54.95;98921.78;4142344;28;20236;-31
2022/08/15 06:48:39;;;;;;;7.25;5.38;;;;;;;25.46;54.39;98905.38;4144283;28;20717;-30
2022/08/15 06:51:04;;;;;;;5.95;4.30;;;;;;;25.37;54.42;98933.19;4142091;28;20277;-30
2022/08/15 06:53:16;;;;;;;5.05;4.03;;;;;;;25.26;54.60;98928.03;4135205;28;20248;-31
2022/08/15 06:55:22;;;;;;;4.57;3.80;;;;;;;25.31;54.99;98933.47;4129151;28;20239;-31
2022/08/15 06:57:47;;;;;;;5.38;3.50;;;;;;;24.24;57.67;98922.34;4130218;28;20608;-30
2022/08/15 07:00:27;;;;;;;5.10;3.95;;;;;;;23.61;58.91;98930.59;4132862;28;20299;-30
2022/08/15 07:02:50;;;;;;;3.60;3.08;;;;;;;24.54;57.61;98909.88;4152286;28;20288;-30
2022/08/15 07:05:07;;;;;;;4.90;3.97;;;;;;;24.74;56.88;98917.19;4147838;28;20245;-29
2022/08/15 07:07:24;;;;;;;5.60;3.40;;;;;;;25.00;56.17;98907.16;4149093;28;20738;-30
2022/08/15 07:09:41;;;;;;;5.57;3.55;;;;;;;24.79;55.64;98943.59;4150230;28;20286;-30
2022/08/15 07:11:54;;;;;;;3.70;3.40;;;;;;;25.57;54.84;98921.38;4149804;28;20224;-30
2022/08/15 07:14:06;;;;;;;5.38;3.60;;;;;;;24.37;56.79;98950.09;4151112;28;20261;-30
2022/08/15 07:16:44;;;;;;;4.32;3.60;;;;;;;24.24;57.57;98933.22;4149426;28;20236;-30
2022/08/15 07:18:50;;;;;;;3.75;3.25;;;;;;;24.91;56.07;98941.41;4138587;28;20232;-29
2022/08/15 07:21:05;;;;;;;5.20;3.85;;;;;;;25.10;55.93;98930.75;4153430;28;20257;-30
2022/08/15 07:23:22;;;;;;;4.65;3.97;;;;;;;25.65;54.56;98919.19;4142316;28;20705;-30
2022/08/15 07:25:29;;;;;;;6.13;4.35;;;;;;;24.98;55.70;98936.50;4153627;28;20236;-30
2022/08/15 07:27:33;;;;;;;5.32;3.80;;;;;;;25.34;55.54;98933.72;4149675;28;20228;-29
2022/08/15 07:29:36;;;;;;;4.32;3.47;;;;;;;25.25;54.98;98921.75;4150819;28;20316;-30
2022/08/15 07:31:43;;;;;;;4.30;3.90;;;;;;;25.58;55.06;98914.88;4150348;28;20237;-29
2022/08/15 07:34:20;;;;;;;6.05;4.00;;;;;;;25.19;56.46;98906.56;4154931;28;20266;-30
2022/08/15 07:36:31;;;;;;;4.80;3.47;;;;;;;25.90;54.89;98912.81;4154636;28;20272;-30
2022/08/15 07:38:35;;;;;;;4.40;3.50;;;;;;;25.53;55.86;98922.25;4151101;28;20240;-30
2022/08/15 07:40:43;;;;;;;4.82;3.45;;;;;;;25.11;56.26;98923.44;4152541;28;20224;-30
2022/08/15 07:43:01;;;;;;;3.97;3.08;;;;;;;24.96;55.83;98935.97;4152175;28;20236;-30
2022/08/15 07:45:13;;;;;;;4.85;3.00;;;;;;;22.95;60.01;98928.31;4153025;28;20645;-30
2022/08/15 07:47:31;;;;;;;3.13;2.83;;;;;;;24.67;56.46;98909.31;4153791;28;20256;-30
2022/08/15 07:49:37;;;;;;;5.97;2.85;;;;;;;25.17;56.17;98901.38;4153852;28;20243;-30
2022/08/15 07:51:51;;;;;;;3.75;2.70;;;;;;;24.82;56.02;98919.41;4154197;28;20240;-30
2022/08/15 07:54:16;;;;;;;3.35;2.75;;;;;;;24.95;56.53;98920.75;4150901;28;20229;-30
2022/08/15 07:56:49;;;;;;;3.30;3.00;;;;;;;25.81;54.46;98900.88;4142330;28;20652;-29
2022/08/15 07:58:55;;;;;;;3.88;2.90;;;;;;;25.20;55.32;98913.59;4150668;28;20241;-30
2022/08/15 08:01:27;;;;;;;3.08;2.80;;;;;;;25.13;54.60;98913.91;4152522;28;20248;-30
2022/08/15 08:03:38;;;;;;;4.13;2.83;;;;;;;25.18;53.97;98929.41;4154711;28;20286;-30
2022/08/15 08:06:07;;;;;;;4.18;3.00;;;;;;;25.13;54.15;98923.97;4146682;28;20224;-30
2022/08/15 08:08:41;;;;;;;3.13;2.72;;;;;;;25.12;54.93;98920.44;4151333;28;20236;-30
2022/08/15 08:10:53;;;;;;;3.28;2.72;;;;;;;26.16;52.79;98916.19;4154978;28;20228;-30
2022/08/15 08:13:39;;;;;;;3.35;2.70;;;;;;;25.40;54.08;98938.06;4150090;28;20244;-29
2022/08/15 08:16:06;;;;;;;3.20;2.90;;;;;;;25.59;53.62;98932.84;4125260;28;20229;-30
2022/08/15 08:18:13;;;;;;;3.58;2.80;;;;;;;25.49;53.30;98932.88;4149304;28;20714;-30
2022/08/15 08:20:39;;;;;;;4.13;2.65;;;;;;;25.16;53.36;98931.59;4153512;28;20702;-30
2022/08/15 08:22:58;;;;;;;3.47;2.85;;;;;;;25.69;51.98;98928.41;4146884;28;20255;-30
2022/08/15 08:25:09;;;;;;;2.83;2.38;;;;;;;25.33;52.35;98917.66;4155024;28;20259;-30
2022/08/15 08:27:20;;;;;;;3.85;2.50;;;;;;;25.68;52.13;98919.44;4148826;28;20635;-30
2022/08/15 08:29:51;;;;;;;3.92;2.75;;;;;;;25.47;52.09;98936.97;4151625;28;20311;-30
2022/08/15 08:32:12;;;;;;;4.00;2.90;;;;;;;25.82;51.86;98927.00;4148053;28;20237;-30
2022/08/15 08:34:55;;;;;;;3.42;3.13;;;;;;;25.56;52.12;98924.38;4149994;28;20229;-30
2022/08/15 08:37:18;;;;;;;3.13;2.83;;;;;;;24.97;53.03;98940.31;4153785;28;20241;-30
2022/08/15 08:39:31;;;;;;;3.95;2.63;;;;;;;26.07;51.45;98923.34;4150433;28;20237;-29
2022/08/15 08:41:43;;;;;;;4.43;3.30;;;;;;;26.04;50.91;98948.44;4150234;28;20635;-29
2022/08/15 08:44:00;;;;;;;3.22;2.92;;;;;;;26.36;50.99;98920.69;4151228;28;20237;-30
2022/08/15 08:46:21;;;;;;;2.92;2.45;;;;;;;26.41;50.26;98928.81;4150492;28;20238;-30
2022/08/15 08:48:43;;;;;;;4.18;2.60;;;;;;;26.09;50.91;98932.84;4151408;28;20232;-29
2022/08/15 08:50:51;;;;;;;4.40;2.75;;;;;;;25.89;50.55;98925.59;4149642;28;20235;-30
2022/08/15 08:53:11;;;;;;;4.68;3.00;;;;;;;25.57;51.08;98923.31;4149538;28;20248;-30
2022/08/15 08:55:19;;;;;;;2.63;2.42;;;;;;;26.34;49.26;98912.00;4153770;28;20221;-30
2022/08/15 08:57:25;;;;;;;3.67;2.58;;;;;;;26.35;49.10;98927.22;4149224;28;20250;-30
2022/08/15 08:59:47;;;;;;;4.45;2.58;;;;;;;25.42;51.85;98926.91;4147507;28;20240;-30
2022/08/15 09:01:56;;;;;;;4.13;2.63;;;;;;;26.59;50.14;98894.63;4151312;28;20784;-30
2022/08/15 09:04:12;;;;;;;2.80;2.50;;;;;;;26.86;49.15;98906.94;4148914;28;20224;-30
2022/08/15 09:06:24;;;;;;;5.90;2.92;;;;;;;26.70;48.85;98917.97;4151177;28;20757;-29
2022/08/15 09:08:37;;;;;;;3.40;2.65;;;;;;;26.31;50.21;98905.19;4151491;28;20604;-30
2022/08/15 09:10:42;;;;;;;3.72;2.50;;;;;;;26.04;50.04;98907.56;4147231;28;20229;-30
2022/08/15 09:15:27;;;;;;;3.17;2.50;;;;;;;26.66;48.89;98907.94;4141042;28;20280;-30
2022/08/15 09:17:53;;;;;;;3.15;2.65;;;;;;;26.96;48.33;98915.00;4142874;28;20241;-30
2022/08/15 09:20:06;;;;;;;4.40;2.35;;;;;;;27.22;48.00;98920.22;4138961;28;20316;-30
2022/08/15 09:22:18;;;;;;;5.03;2.63;;;;;;;26.71;48.92;98911.41;4114080;28;20728;-30
2022/08/15 09:24:22;;;;;;;2.60;2.40;;;;;;;26.69;48.09;98910.09;4129377;28;20401;-30
2022/08/15 09:27:16;;;;;;;3.05;2.70;;;;;;;26.90;48.27;98916.97;4149045;28;20232;-30
2022/08/15 09:29:30;;;;;;;2.85;2.58;;;;;;;26.97;47.80;98913.91;4146691;28;20234;-30
2022/08/15 09:31:36;;;;;;;3.38;2.40;;;;;;;27.13;47.70;98903.69;4151768;28;20237;-29
2022/08/15 09:34:22;;;;;;;3.95;2.70;;;;;;;26.60;49.08;98907.16;4151340;28;20317;-30
2022/08/15 09:36:51;;;;;;;2.30;2.10;;;;;;;26.99;47.66;98897.25;4104527;28;20232;-30
2022/08/15 09:38:59;;;;;;;3.05;2.60;;;;;;;27.63;46.60;98892.44;4141712;28;20769;-30
2022/08/15 09:41:20;;;;;;;2.92;2.65;;;;;;;27.58;47.14;98890.56;4146037;28;20251;-30
2022/08/15 09:43:37;;;;;;;2.88;2.53;;;;;;;26.57;47.95;98901.47;4149039;28;20229;-30
2022/08/15 09:45:54;;;;;;;3.47;2.30;;;;;;;27.46;46.68;98892.91;4151389;28;20225;-30
2022/08/15 09:48:07;;;;;;;3.85;2.50;;;;;;;28.23;45.28;98878.22;4149767;28;20236;-30
2022/08/15 09:50:31;;;;;;;3.92;2.47;;;;;;;27.90;46.78;98885.50;4142689;22;20235;-29
2022/08/15 09:53:24;;;;;;;2.88;2.45;;;;;;;28.37;45.74;98890.00;4139943;28;20272;-29
2022/08/15 09:55:34;;;;;;;3.42;2.53;;;;;;;28.43;45.50;98884.44;4134599;28;20245;-29
2022/08/15 09:57:45;;;;;;;3.00;2.70;;;;;;;28.33;45.42;98882.72;4140713;28;20236;-29
2022/08/15 10:00:18;;;;;;;4.50;2.70;;;;;;;28.99;43.76;98874.44;4140623;28;20244;-28
2022/08/15 10:02:26;;;;;;;3.67;2.40;;;;;;;28.07;45.73;98885.00;4144874;28;20256;-31
2022/08/15 10:04:40;;;;;;;4.07;2.70;;;;;;;28.07;45.54;98874.06;4145034;28;20232;-28
2022/08/15 10:07:08;;;;;;;2.83;2.63;;;;;;;28.00;45.95;98867.06;4143118;28;20232;-28
2022/08/15 10:09:37;;;;;;;3.72;2.85;;;;;;;27.99;45.76;98861.91;4106272;28;20229;-29
2022/08/15 10:11:46;;;;;;;2.67;2.47;;;;;;;28.53;45.22;98854.22;4142444;28;20291;-28
2022/08/15 10:14:06;;;;;;;3.78;2.20;;;;;;;28.13;46.08;98860.03;4149174;28;20247;-28
2022/08/15 10:16:36;;;;;;;3.28;2.80;;;;;;;28.07;46.04;98835.81;4145420;28;20243;-29
2022/08/15 10:18:38;;;;;;;4.43;2.92;;;;;;;28.01;45.76;98840.56;4129869;28;20221;-28
2022/08/15 10:20:43;;;;;;;2.60;2.40;;;;;;;28.39;45.48;98823.28;4141858;28;20320;-28
2022/08/15 10:23:00;;;;;;;2.95;2.38;;;;;;;28.34;45.39;98824.16;4143732;28;20281;-30
2022/08/15 10:25:17;;;;;;;2.40;2.20;;;;;;;28.82;43.84;98820.34;4143973;28;20270;-30
2022/08/15 10:27:22;;;;;;;2.67;2.47;;;;;;;28.74;44.43;98836.31;4142677;28;20226;-27
2022/08/15 10:29:30;;;;;;;3.40;2.70;;;;;;;28.02;44.83;98825.75;4141082;28;20295;-30
2022/08/15 10:31:41;;;;;;;3.25;2.72;;;;;;;28.79;43.74;98829.94;4141665;28;20224;-30
2022/08/15 10:34:03;;;;;;;5.07;2.55;;;;;;;27.99;45.79;98821.72;4141560;28;20260;-30
2022/08/15 10:36:13;;;;;;;4.68;2.55;;;;;;;28.38;44.74;98806.06;4144073;28;21034;-30